sensor_id;sensor_type;location;lat;lon;timestamp;noise_LAeq;noise_LA_min;noise_LA_max;noise_LA01;noise_LA95
41518;Laerm;27249;48.094;-1.690;2022-07-09T00:01:28;50.76;42.53;63.71;;
41518;Laerm;27249;48.094;-1.690;2022-07-09T00:03:53;46.97;42.71;57.84;;
41518;Laerm;27249;48.094;-1.690;2022-07-09T00:06:20;44.10;42.29;51.42;;
41518;Laerm;27249;48.094;-1.690;2022-07-09T00:08:45;50.83;42.09;59.67;;
41518;Laerm;27249;48.094;-1.690;2022-07-09T00:11:10;47.71;41.96;57.20;;
41518;Laerm;27249;48.094;-1.690;2022-07-09T00:13:35;44.47;42.03;50.05;;
41518;Laerm;27249;48.094;-1.690;2022-07-09T00:16:00;43.79;41.41;60.92;;
41518;Laerm;27249;48.094;-1.690;2022-07-09T00:18:26;43.80;42.03;46.95;;
41518;Laerm;27249;48.094;-1.690;2022-07-09T00:20:53;46.06;42.29;55.98;;
41518;Laerm;27249;48.094;-1.690;2022-07-09T00:23:18;46.90;42.03;59.13;;
41518;Laerm;27249;48.094;-1.690;2022-07-09T00:25:43;46.46;42.35;57.32;;
41518;Laerm;27249;48.094;-1.690;2022-07-09T00:28:08;47.43;42.41;58.91;;
41518;Laerm;27249;48.094;-1.690;2022-07-09T00:30:34;48.93;42.65;57.43;;
41518;Laerm;27249;48.094;-1.690;2022-07-09T00:32:59;49.81;42.29;60.92;;
41518;Laerm;27249;48.094;-1.690;2022-07-09T00:35:24;46.62;42.29;60.67;;
41518;Laerm;27249;48.094;-1.690;2022-07-09T00:37:50;47.63;42.29;59.19;;
41518;Laerm;27249;48.094;-1.690;2022-07-09T00:40:15;45.59;42.03;55.41;;
41518;Laerm;27249;48.094;-1.690;2022-07-09T00:42:40;48.49;42.47;60.52;;
41518;Laerm;27249;48.094;-1.690;2022-07-09T00:45:06;46.40;42.53;56.05;;
41518;Laerm;27249;48.094;-1.690;2022-07-09T00:47:31;48.49;42.29;68.68;;
41518;Laerm;27249;48.094;-1.690;2022-07-09T00:49:56;48.61;42.35;61.23;;
41518;Laerm;27249;48.094;-1.690;2022-07-09T00:52:22;49.60;42.47;59.80;;
41518;Laerm;27249;48.094;-1.690;2022-07-09T00:54:47;59.56;41.53;80.71;;
41518;Laerm;27249;48.094;-1.690;2022-07-09T00:57:13;60.85;42.71;88.39;;
41518;Laerm;27249;48.094;-1.690;2022-07-09T00:59:39;51.55;42.65;78.73;;
41518;Laerm;27249;48.094;-1.690;2022-07-09T01:02:06;49.08;42.41;66.31;;
41518;Laerm;27249;48.094;-1.690;2022-07-09T01:04:31;51.87;42.93;64.57;;
41518;Laerm;27249;48.094;-1.690;2022-07-09T01:06:56;51.30;42.41;62.59;;
41518;Laerm;27249;48.094;-1.690;2022-07-09T01:09:23;49.03;42.53;59.06;;
41518;Laerm;27249;48.094;-1.690;2022-07-09T01:11:48;53.67;42.59;65.33;;
41518;Laerm;27249;48.094;-1.690;2022-07-09T01:14:13;51.28;43.94;62.84;;
41518;Laerm;27249;48.094;-1.690;2022-07-09T01:16:39;47.01;42.47;58.59;;
41518;Laerm;27249;48.094;-1.690;2022-07-09T01:19:04;53.84;42.59;70.98;;
41518;Laerm;27249;48.094;-1.690;2022-07-09T01:21:30;48.48;42.29;57.53;;
41518;Laerm;27249;48.094;-1.690;2022-07-09T01:23:55;48.94;42.03;60.43;;
41518;Laerm;27249;48.094;-1.690;2022-07-09T01:26:21;45.52;42.16;58.99;;
41518;Laerm;27249;48.094;-1.690;2022-07-09T01:28:46;50.51;42.35;62.11;;
41518;Laerm;27249;48.094;-1.690;2022-07-09T01:31:12;47.39;42.16;60.57;;
41518;Laerm;27249;48.094;-1.690;2022-07-09T01:33:38;52.56;42.09;66.82;;
41518;Laerm;27249;48.094;-1.690;2022-07-09T01:36:03;47.83;42.41;61.31;;
41518;Laerm;27249;48.094;-1.690;2022-07-09T01:38:29;50.29;43.09;63.15;;
41518;Laerm;27249;48.094;-1.690;2022-07-09T01:40:54;50.42;41.82;63.33;;
41518;Laerm;27249;48.094;-1.690;2022-07-09T01:43:19;52.61;42.47;66.87;;
41518;Laerm;27249;48.094;-1.690;2022-07-09T01:45:45;51.95;42.53;63.43;;
41518;Laerm;27249;48.094;-1.690;2022-07-09T01:48:10;48.39;41.89;59.86;;
41518;Laerm;27249;48.094;-1.690;2022-07-09T01:50:35;49.93;42.22;61.47;;
41518;Laerm;27249;48.094;-1.690;2022-07-09T01:53:00;57.21;42.09;77.17;;
41518;Laerm;27249;48.094;-1.690;2022-07-09T01:55:26;45.65;41.89;56.79;;
41518;Laerm;27249;48.094;-1.690;2022-07-09T01:57:51;43.95;42.35;64.83;;
41518;Laerm;27249;48.094;-1.690;2022-07-09T02:00:17;43.85;42.06;58.68;;
41518;Laerm;27249;48.094;-1.690;2022-07-09T02:02:44;48.23;42.47;64.82;;
41518;Laerm;27249;48.094;-1.690;2022-07-09T02:05:09;49.43;42.16;62.19;;
41518;Laerm;27249;48.094;-1.690;2022-07-09T02:07:34;50.90;42.35;63.83;;
41518;Laerm;27249;48.094;-1.690;2022-07-09T02:10:00;51.73;43.14;66.25;;
41518;Laerm;27249;48.094;-1.690;2022-07-09T02:12:25;49.25;42.47;61.40;;
41518;Laerm;27249;48.094;-1.690;2022-07-09T02:14:51;49.62;42.65;58.39;;
41518;Laerm;27249;48.094;-1.690;2022-07-09T02:17:16;48.86;42.16;62.18;;
41518;Laerm;27249;48.094;-1.690;2022-07-09T02:19:41;49.04;42.16;63.68;;
41518;Laerm;27249;48.094;-1.690;2022-07-09T02:22:06;44.03;42.16;48.25;;
41518;Laerm;27249;48.094;-1.690;2022-07-09T02:24:32;46.03;42.03;61.11;;
41518;Laerm;27249;48.094;-1.690;2022-07-09T02:26:57;47.58;42.03;57.59;;
41518;Laerm;27249;48.094;-1.690;2022-07-09T02:29:22;47.11;42.41;56.95;;
41518;Laerm;27249;48.094;-1.690;2022-07-09T02:31:48;47.51;42.41;58.57;;
41518;Laerm;27249;48.094;-1.690;2022-07-09T02:34:13;48.81;42.71;62.49;;
41518;Laerm;27249;48.094;-1.690;2022-07-09T02:36:38;50.09;42.41;58.86;;
41518;Laerm;27249;48.094;-1.690;2022-07-09T02:39:03;47.27;42.22;59.91;;
41518;Laerm;27249;48.094;-1.690;2022-07-09T02:41:28;48.91;42.22;58.56;;
41518;Laerm;27249;48.094;-1.690;2022-07-09T02:43:54;45.16;42.16;59.62;;
41518;Laerm;27249;48.094;-1.690;2022-07-09T02:46:19;53.71;42.29;68.01;;
41518;Laerm;27249;48.094;-1.690;2022-07-09T02:48:44;48.07;42.16;60.15;;
41518;Laerm;27249;48.094;-1.690;2022-07-09T02:51:09;47.43;42.41;57.63;;
41518;Laerm;27249;48.094;-1.690;2022-07-09T02:53:35;50.56;41.96;61.32;;
41518;Laerm;27249;48.094;-1.690;2022-07-09T02:56:00;47.47;42.93;57.89;;
41518;Laerm;27249;48.094;-1.690;2022-07-09T02:58:25;48.97;42.65;63.67;;
41518;Laerm;27249;48.094;-1.690;2022-07-09T03:00:50;50.79;42.29;64.35;;
41518;Laerm;27249;48.094;-1.690;2022-07-09T03:03:16;50.62;43.04;63.47;;
41518;Laerm;27249;48.094;-1.690;2022-07-09T03:05:41;51.11;43.34;66.14;;
41518;Laerm;27249;48.094;-1.690;2022-07-09T03:08:07;53.10;42.76;65.28;;
41518;Laerm;27249;48.094;-1.690;2022-07-09T03:10:33;49.35;42.53;60.93;;
41518;Laerm;27249;48.094;-1.690;2022-07-09T03:12:58;48.71;42.82;60.01;;
41518;Laerm;27249;48.094;-1.690;2022-07-09T03:15:24;51.29;42.65;64.05;;
41518;Laerm;27249;48.094;-1.690;2022-07-09T03:17:49;50.36;42.88;63.68;;
41518;Laerm;27249;48.094;-1.690;2022-07-09T03:20:14;52.46;42.53;68.97;;
41518;Laerm;27249;48.094;-1.690;2022-07-09T03:22:40;48.10;42.29;65.31;;
41518;Laerm;27249;48.094;-1.690;2022-07-09T03:25:06;51.93;42.71;65.40;;
41518;Laerm;27249;48.094;-1.690;2022-07-09T03:27:31;46.89;42.47;57.41;;
41518;Laerm;27249;48.094;-1.690;2022-07-09T03:29:57;50.18;42.98;62.95;;
41518;Laerm;27249;48.094;-1.690;2022-07-09T03:32:22;51.35;42.98;63.93;;
41518;Laerm;27249;48.094;-1.690;2022-07-09T03:34:48;50.32;43.99;64.70;;
41518;Laerm;27249;48.094;-1.690;2022-07-09T03:37:13;51.63;43.34;66.06;;
41518;Laerm;27249;48.094;-1.690;2022-07-09T03:39:38;52.65;42.98;62.38;;
41518;Laerm;27249;48.094;-1.690;2022-07-09T03:42:04;47.90;42.53;60.71;;
41518;Laerm;27249;48.094;-1.690;2022-07-09T03:44:31;47.78;42.35;58.98;;
41518;Laerm;27249;48.094;-1.690;2022-07-09T03:46:56;51.89;43.04;64.10;;
41518;Laerm;27249;48.094;-1.690;2022-07-09T03:49:22;61.78;43.04;78.62;;
41518;Laerm;27249;48.094;-1.690;2022-07-09T03:51:48;53.75;43.39;64.81;;
41518;Laerm;27249;48.094;-1.690;2022-07-09T03:54:13;51.23;43.29;67.70;;
41518;Laerm;27249;48.094;-1.690;2022-07-09T03:56:38;51.32;43.34;61.57;;
41518;Laerm;27249;48.094;-1.690;2022-07-09T03:59:03;51.22;43.04;65.67;;
41518;Laerm;27249;48.094;-1.690;2022-07-09T04:01:29;49.70;42.71;67.31;;
41518;Laerm;27249;48.094;-1.690;2022-07-09T04:03:54;49.57;42.35;65.33;;
41518;Laerm;27249;48.094;-1.690;2022-07-09T04:06:19;50.71;42.65;63.98;;
41518;Laerm;27249;48.094;-1.690;2022-07-09T04:08:45;49.56;42.35;62.59;;
41518;Laerm;27249;48.094;-1.690;2022-07-09T04:11:10;47.97;42.88;62.39;;
41518;Laerm;27249;48.094;-1.690;2022-07-09T04:13:36;55.91;43.86;68.57;;
41518;Laerm;27249;48.094;-1.690;2022-07-09T04:16:01;51.74;43.99;63.13;;
41518;Laerm;27249;48.094;-1.690;2022-07-09T04:18:26;54.40;44.39;65.11;;
41518;Laerm;27249;48.094;-1.690;2022-07-09T04:20:52;54.84;43.72;68.23;;
41518;Laerm;27249;48.094;-1.690;2022-07-09T04:23:19;55.74;44.39;69.45;;
41518;Laerm;27249;48.094;-1.690;2022-07-09T04:25:44;51.20;43.72;66.57;;
41518;Laerm;27249;48.094;-1.690;2022-07-09T04:28:10;54.33;43.94;67.63;;
41518;Laerm;27249;48.094;-1.690;2022-07-09T04:30:35;53.05;43.49;65.30;;
41518;Laerm;27249;48.094;-1.690;2022-07-09T04:33:01;51.55;43.44;65.36;;
41518;Laerm;27249;48.094;-1.690;2022-07-09T04:35:26;52.01;43.63;62.76;;
41518;Laerm;27249;48.094;-1.690;2022-07-09T04:37:51;48.45;43.49;57.76;;
41518;Laerm;27249;48.094;-1.690;2022-07-09T04:40:16;49.45;42.93;65.28;;
41518;Laerm;27249;48.094;-1.690;2022-07-09T04:42:42;51.91;43.81;69.97;;
41518;Laerm;27249;48.094;-1.690;2022-07-09T04:45:07;53.67;43.99;66.84;;
41518;Laerm;27249;48.094;-1.690;2022-07-09T04:47:32;48.10;43.44;60.09;;
41518;Laerm;27249;48.094;-1.690;2022-07-09T04:49:58;52.23;44.07;62.10;;
41518;Laerm;27249;48.094;-1.690;2022-07-09T04:52:23;52.35;43.34;65.82;;
41518;Laerm;27249;48.094;-1.690;2022-07-09T04:54:52;53.05;43.49;63.17;;
41518;Laerm;27249;48.094;-1.690;2022-07-09T04:57:17;52.02;43.90;64.06;;
41518;Laerm;27249;48.094;-1.690;2022-07-09T04:59:42;52.19;43.72;62.92;;
41518;Laerm;27249;48.094;-1.690;2022-07-09T05:02:08;50.95;42.65;63.29;;
41518;Laerm;27249;48.094;-1.690;2022-07-09T05:04:33;52.60;43.68;62.25;;
41518;Laerm;27249;48.094;-1.690;2022-07-09T05:06:58;51.23;43.77;67.88;;
41518;Laerm;27249;48.094;-1.690;2022-07-09T05:09:23;50.77;43.72;63.62;;
41518;Laerm;27249;48.094;-1.690;2022-07-09T05:11:49;54.07;44.76;62.85;;
41518;Laerm;27249;48.094;-1.690;2022-07-09T05:14:14;53.01;43.81;65.97;;
41518;Laerm;27249;48.094;-1.690;2022-07-09T05:16:39;51.29;43.94;62.06;;
41518;Laerm;27249;48.094;-1.690;2022-07-09T05:19:10;54.00;42.93;69.29;;
41518;Laerm;27249;48.094;-1.690;2022-07-09T05:21:35;54.93;43.77;70.22;;
41518;Laerm;27249;48.094;-1.690;2022-07-09T05:24:01;54.26;43.63;65.24;;
41518;Laerm;27249;48.094;-1.690;2022-07-09T05:26:27;52.50;45.39;66.88;;
41518;Laerm;27249;48.094;-1.690;2022-07-09T05:28:54;50.70;43.14;60.22;;
41518;Laerm;27249;48.094;-1.690;2022-07-09T05:31:19;51.45;44.19;59.53;;
41518;Laerm;27249;48.094;-1.690;2022-07-09T05:33:45;52.01;43.58;60.76;;
41518;Laerm;27249;48.094;-1.690;2022-07-09T05:36:10;52.21;44.15;61.24;;
41518;Laerm;27249;48.094;-1.690;2022-07-09T05:38:36;50.82;43.90;60.74;;
41518;Laerm;27249;48.094;-1.690;2022-07-09T05:41:01;51.20;43.86;65.88;;
41518;Laerm;27249;48.094;-1.690;2022-07-09T05:43:26;51.96;44.56;63.59;;
41518;Laerm;27249;48.094;-1.690;2022-07-09T05:45:51;52.43;43.58;61.39;;
41518;Laerm;27249;48.094;-1.690;2022-07-09T05:48:17;51.20;44.76;58.78;;
41518;Laerm;27249;48.094;-1.690;2022-07-09T05:50:42;51.60;43.94;59.25;;
41518;Laerm;27249;48.094;-1.690;2022-07-09T05:53:07;53.61;43.63;68.00;;
41518;Laerm;27249;48.094;-1.690;2022-07-09T05:55:32;53.70;46.10;63.41;;
41518;Laerm;27249;48.094;-1.690;2022-07-09T05:57:58;51.40;44.07;60.44;;
41518;Laerm;27249;48.094;-1.690;2022-07-09T06:00:23;55.24;45.83;68.54;;
41518;Laerm;27249;48.094;-1.690;2022-07-09T06:02:48;53.20;43.19;65.42;;
41518;Laerm;27249;48.094;-1.690;2022-07-09T06:05:19;53.00;44.65;64.78;;
41518;Laerm;27249;48.094;-1.690;2022-07-09T06:07:45;53.48;44.62;61.85;;
41518;Laerm;27249;48.094;-1.690;2022-07-09T06:10:11;50.12;43.58;63.48;;
41518;Laerm;27249;48.094;-1.690;2022-07-09T06:12:37;54.37;45.89;64.30;;
41518;Laerm;27249;48.094;-1.690;2022-07-09T06:15:03;54.06;44.07;64.03;;
41518;Laerm;27249;48.094;-1.690;2022-07-09T06:17:28;51.05;44.66;64.39;;
41518;Laerm;27249;48.094;-1.690;2022-07-09T06:19:53;51.63;43.94;64.59;;
41518;Laerm;27249;48.094;-1.690;2022-07-09T06:22:18;53.65;44.97;60.65;;
41518;Laerm;27249;48.094;-1.690;2022-07-09T06:24:44;52.01;44.31;59.18;;
41518;Laerm;27249;48.094;-1.690;2022-07-09T06:27:09;52.73;44.73;61.30;;
41518;Laerm;27249;48.094;-1.690;2022-07-09T06:29:35;52.84;44.73;61.71;;
41518;Laerm;27249;48.094;-1.690;2022-07-09T06:32:01;54.54;46.28;64.77;;
41518;Laerm;27249;48.094;-1.690;2022-07-09T06:34:26;53.63;45.17;61.40;;
41518;Laerm;27249;48.094;-1.690;2022-07-09T06:36:51;53.62;45.97;66.87;;
41518;Laerm;27249;48.094;-1.690;2022-07-09T06:39:17;50.52;44.03;61.90;;
41518;Laerm;27249;48.094;-1.690;2022-07-09T06:42:04;56.12;45.99;73.39;;
41518;Laerm;27249;48.094;-1.690;2022-07-09T06:44:30;53.70;45.23;60.26;;
41518;Laerm;27249;48.094;-1.690;2022-07-09T06:46:55;52.85;45.94;59.68;;
41518;Laerm;27249;48.094;-1.690;2022-07-09T06:49:20;52.76;45.04;61.42;;
41518;Laerm;27249;48.094;-1.690;2022-07-09T06:51:46;54.90;46.89;61.66;;
41518;Laerm;27249;48.094;-1.690;2022-07-09T06:54:11;53.95;45.14;60.96;;
41518;Laerm;27249;48.094;-1.690;2022-07-09T06:56:36;54.23;43.72;67.33;;
41518;Laerm;27249;48.094;-1.690;2022-07-09T06:59:01;53.33;45.83;59.76;;
41518;Laerm;27249;48.094;-1.690;2022-07-09T07:01:27;54.99;45.83;65.32;;
41518;Laerm;27249;48.094;-1.690;2022-07-09T07:03:52;56.64;48.88;67.83;;
41518;Laerm;27249;48.094;-1.690;2022-07-09T07:06:17;55.25;47.38;72.42;;
41518;Laerm;27249;48.094;-1.690;2022-07-09T07:08:42;54.68;45.86;64.34;;
41518;Laerm;27249;48.094;-1.690;2022-07-09T07:11:07;54.88;47.84;66.58;;
41518;Laerm;27249;48.094;-1.690;2022-07-09T07:13:33;54.47;48.21;74.45;;
41518;Laerm;27249;48.094;-1.690;2022-07-09T07:15:58;55.92;48.32;66.18;;
41518;Laerm;27249;48.094;-1.690;2022-07-09T07:18:23;59.26;47.00;78.15;;
41518;Laerm;27249;48.094;-1.690;2022-07-09T07:20:49;60.00;46.23;83.01;;
41518;Laerm;27249;48.094;-1.690;2022-07-09T07:23:14;55.87;47.70;64.42;;
41518;Laerm;27249;48.094;-1.690;2022-07-09T07:25:40;55.60;46.33;66.90;;
41518;Laerm;27249;48.094;-1.690;2022-07-09T07:28:05;53.63;45.39;62.49;;
41518;Laerm;27249;48.094;-1.690;2022-07-09T07:30:31;53.23;46.57;65.89;;
41518;Laerm;27249;48.094;-1.690;2022-07-09T07:32:58;57.23;50.19;72.35;;
41518;Laerm;27249;48.094;-1.690;2022-07-09T07:35:23;54.85;46.10;66.62;;
41518;Laerm;27249;48.094;-1.690;2022-07-09T07:37:48;55.18;48.39;61.67;;
41518;Laerm;27249;48.094;-1.690;2022-07-09T07:40:14;53.15;46.20;59.58;;
41518;Laerm;27249;48.094;-1.690;2022-07-09T07:42:39;55.87;48.10;64.76;;
41518;Laerm;27249;48.094;-1.690;2022-07-09T07:45:04;57.79;51.40;70.01;;
41518;Laerm;27249;48.094;-1.690;2022-07-09T07:47:30;61.25;48.05;84.97;;
41518;Laerm;27249;48.094;-1.690;2022-07-09T07:49:55;62.41;47.41;90.12;;
41518;Laerm;27249;48.094;-1.690;2022-07-09T07:52:20;54.70;46.66;63.06;;
41518;Laerm;27249;48.094;-1.690;2022-07-09T07:54:46;56.51;49.30;68.36;;
41518;Laerm;27249;48.094;-1.690;2022-07-09T07:57:11;54.81;45.66;63.19;;
41518;Laerm;27249;48.094;-1.690;2022-07-09T07:59:36;55.09;46.91;61.79;;
41518;Laerm;27249;48.094;-1.690;2022-07-09T08:02:01;55.27;48.15;59.78;;
41518;Laerm;27249;48.094;-1.690;2022-07-09T08:04:27;54.87;44.73;63.78;;
41518;Laerm;27249;48.094;-1.690;2022-07-09T08:06:52;58.13;48.42;69.30;;
41518;Laerm;27249;48.094;-1.690;2022-07-09T08:09:17;54.54;46.23;67.55;;
41518;Laerm;27249;48.094;-1.690;2022-07-09T08:11:42;54.28;44.90;67.08;;
41518;Laerm;27249;48.094;-1.690;2022-07-09T08:14:08;56.29;49.41;64.99;;
41518;Laerm;27249;48.094;-1.690;2022-07-09T08:16:34;57.66;47.12;71.27;;
41518;Laerm;27249;48.094;-1.690;2022-07-09T08:18:59;55.47;49.19;62.23;;
41518;Laerm;27249;48.094;-1.690;2022-07-09T08:21:24;54.55;45.14;64.58;;
41518;Laerm;27249;48.094;-1.690;2022-07-09T08:23:50;54.23;47.06;65.25;;
41518;Laerm;27249;48.094;-1.690;2022-07-09T08:26:22;55.50;49.28;62.07;;
41518;Laerm;27249;48.094;-1.690;2022-07-09T08:28:48;55.00;48.03;65.38;;
41518;Laerm;27249;48.094;-1.690;2022-07-09T08:31:16;54.76;48.84;65.08;;
41518;Laerm;27249;48.094;-1.690;2022-07-09T08:33:42;58.02;49.47;70.21;;
41518;Laerm;27249;48.094;-1.690;2022-07-09T08:36:07;55.37;48.46;64.75;;
41518;Laerm;27249;48.094;-1.690;2022-07-09T08:38:32;54.97;49.89;60.58;;
41518;Laerm;27249;48.094;-1.690;2022-07-09T08:40:59;55.31;48.31;66.40;;
41518;Laerm;27249;48.094;-1.690;2022-07-09T08:43:24;55.67;49.38;61.11;;
41518;Laerm;27249;48.094;-1.690;2022-07-09T08:45:52;55.00;49.10;62.29;;
41518;Laerm;27249;48.094;-1.690;2022-07-09T08:48:18;54.54;46.93;59.98;;
41518;Laerm;27249;48.094;-1.690;2022-07-09T08:50:45;55.60;48.67;63.10;;
41518;Laerm;27249;48.094;-1.690;2022-07-09T08:53:11;53.36;46.89;60.42;;
41518;Laerm;27249;48.094;-1.690;2022-07-09T08:55:37;52.69;47.55;62.70;;
41518;Laerm;27249;48.094;-1.690;2022-07-09T08:58:02;55.57;47.48;63.46;;
41518;Laerm;27249;48.094;-1.690;2022-07-09T09:00:27;55.01;49.04;62.91;;
41518;Laerm;27249;48.094;-1.690;2022-07-09T09:02:52;54.56;47.36;62.01;;
41518;Laerm;27249;48.094;-1.690;2022-07-09T09:05:21;54.93;47.38;63.62;;
41518;Laerm;27249;48.094;-1.690;2022-07-09T09:07:46;55.12;49.27;69.46;;
41518;Laerm;27249;48.094;-1.690;2022-07-09T09:10:21;55.46;49.00;65.36;;
41518;Laerm;27249;48.094;-1.690;2022-07-09T09:12:47;54.58;47.74;65.59;;
41518;Laerm;27249;48.094;-1.690;2022-07-09T09:15:12;53.76;48.54;62.08;;
41518;Laerm;27249;48.094;-1.690;2022-07-09T09:17:44;55.74;46.75;66.55;;
41518;Laerm;27249;48.094;-1.690;2022-07-09T09:20:11;55.10;46.89;65.70;;
41518;Laerm;27249;48.094;-1.690;2022-07-09T09:22:43;57.12;47.77;72.88;;
41518;Laerm;27249;48.094;-1.690;2022-07-09T09:25:14;54.77;48.66;66.67;;
41518;Laerm;27249;48.094;-1.690;2022-07-09T09:27:39;55.35;49.49;63.38;;
41518;Laerm;27249;48.094;-1.690;2022-07-09T09:30:07;54.76;48.21;60.88;;
41518;Laerm;27249;48.094;-1.690;2022-07-09T09:32:34;55.27;49.59;64.66;;
41518;Laerm;27249;48.094;-1.690;2022-07-09T09:35:01;55.48;50.75;63.36;;
41518;Laerm;27249;48.094;-1.690;2022-07-09T09:37:27;55.05;47.40;69.03;;
41518;Laerm;27249;48.094;-1.690;2022-07-09T09:39:53;54.78;50.45;63.09;;
41518;Laerm;27249;48.094;-1.690;2022-07-09T09:42:19;54.42;47.90;60.70;;
41518;Laerm;27249;48.094;-1.690;2022-07-09T09:44:46;56.25;48.84;66.94;;
41518;Laerm;27249;48.094;-1.690;2022-07-09T09:47:14;55.48;50.17;74.11;;
41518;Laerm;27249;48.094;-1.690;2022-07-09T09:49:41;56.47;49.90;69.18;;
41518;Laerm;27249;48.094;-1.690;2022-07-09T09:52:06;56.19;50.54;64.10;;
41518;Laerm;27249;48.094;-1.690;2022-07-09T09:54:33;56.68;48.96;63.60;;
41518;Laerm;27249;48.094;-1.690;2022-07-09T09:56:59;54.93;46.43;60.91;;
41518;Laerm;27249;48.094;-1.690;2022-07-09T09:59:25;59.96;49.30;75.71;;
41518;Laerm;27249;48.094;-1.690;2022-07-09T10:01:50;56.06;49.15;65.69;;
41518;Laerm;27249;48.094;-1.690;2022-07-09T10:04:16;54.91;47.59;61.14;;
41518;Laerm;27249;48.094;-1.690;2022-07-09T10:06:41;55.44;47.44;63.11;;
41518;Laerm;27249;48.094;-1.690;2022-07-09T10:09:07;54.16;46.78;65.41;;
41518;Laerm;27249;48.094;-1.690;2022-07-09T10:14:07;55.48;48.73;65.12;;
41518;Laerm;27249;48.094;-1.690;2022-07-09T10:16:39;53.63;48.57;59.98;;
41518;Laerm;27249;48.094;-1.690;2022-07-09T10:19:05;54.89;49.28;61.51;;
41518;Laerm;27249;48.094;-1.690;2022-07-09T10:21:34;55.20;47.08;61.21;;
41518;Laerm;27249;48.094;-1.690;2022-07-09T10:24:00;55.59;49.56;66.78;;
41518;Laerm;27249;48.094;-1.690;2022-07-09T10:27:25;66.16;49.28;83.66;;
41518;Laerm;27249;48.094;-1.690;2022-07-09T10:29:24;59.32;50.37;70.68;;
41518;Laerm;27249;48.094;-1.690;2022-07-09T10:31:50;55.68;45.27;65.08;;
41518;Laerm;27249;48.094;-1.690;2022-07-09T10:34:20;55.49;46.02;69.38;;
41518;Laerm;27249;48.094;-1.690;2022-07-09T10:36:56;56.66;47.14;68.47;;
41518;Laerm;27249;48.094;-1.690;2022-07-09T10:39:21;55.64;49.24;67.35;;
41518;Laerm;27249;48.094;-1.690;2022-07-09T10:41:46;55.17;48.29;61.97;;
41518;Laerm;27249;48.094;-1.690;2022-07-09T10:44:26;56.14;48.74;70.22;;
41518;Laerm;27249;48.094;-1.690;2022-07-09T10:46:58;55.83;47.02;75.01;;
41518;Laerm;27249;48.094;-1.690;2022-07-09T10:49:24;56.17;47.46;70.39;;
41518;Laerm;27249;48.094;-1.690;2022-07-09T10:51:49;54.72;48.46;62.95;;
41518;Laerm;27249;48.094;-1.690;2022-07-09T10:54:15;55.04;48.96;60.08;;
41518;Laerm;27249;48.094;-1.690;2022-07-09T10:56:41;54.58;45.01;61.71;;
41518;Laerm;27249;48.094;-1.690;2022-07-09T10:59:06;55.08;46.23;61.80;;
41518;Laerm;27249;48.094;-1.690;2022-07-09T11:01:31;54.46;46.27;64.50;;
41518;Laerm;27249;48.094;-1.690;2022-07-09T11:03:56;55.49;50.03;67.32;;
41518;Laerm;27249;48.094;-1.690;2022-07-09T11:06:23;55.05;45.54;62.29;;
41518;Laerm;27249;48.094;-1.690;2022-07-09T11:08:48;55.25;43.90;67.38;;
41518;Laerm;27249;48.094;-1.690;2022-07-09T11:11:20;56.83;46.33;67.95;;
41518;Laerm;27249;48.094;-1.690;2022-07-09T11:13:49;56.46;47.88;70.15;;
41518;Laerm;27249;48.094;-1.690;2022-07-09T11:16:20;54.42;47.61;60.78;;
41518;Laerm;27249;48.094;-1.690;2022-07-09T11:18:46;55.16;48.08;61.23;;
41518;Laerm;27249;48.094;-1.690;2022-07-09T11:21:11;55.54;48.10;68.74;;
41518;Laerm;27249;48.094;-1.690;2022-07-09T11:23:36;54.27;48.08;59.19;;
41518;Laerm;27249;48.094;-1.690;2022-07-09T11:26:01;54.55;48.84;60.80;;
41518;Laerm;27249;48.094;-1.690;2022-07-09T11:28:27;55.67;46.38;62.23;;
41518;Laerm;27249;48.094;-1.690;2022-07-09T11:31:02;55.38;45.07;61.07;;
41518;Laerm;27249;48.094;-1.690;2022-07-09T11:33:28;55.59;49.92;61.43;;
41518;Laerm;27249;48.094;-1.690;2022-07-09T11:36:14;58.14;47.34;76.69;;
41518;Laerm;27249;48.094;-1.690;2022-07-09T11:38:49;56.00;47.65;67.61;;
41518;Laerm;27249;48.094;-1.690;2022-07-09T11:41:14;55.76;46.05;64.45;;
41518;Laerm;27249;48.094;-1.690;2022-07-09T11:43:45;55.36;49.24;64.59;;
41518;Laerm;27249;48.094;-1.690;2022-07-09T11:46:10;55.43;45.94;67.34;;
41518;Laerm;27249;48.094;-1.690;2022-07-09T11:48:35;54.29;46.43;60.20;;
41518;Laerm;27249;48.094;-1.690;2022-07-09T11:51:00;54.58;47.98;61.23;;
41518;Laerm;27249;48.094;-1.690;2022-07-09T11:53:25;55.14;46.23;64.67;;
41518;Laerm;27249;48.094;-1.690;2022-07-09T11:56:03;56.49;48.71;65.16;;
41518;Laerm;27249;48.094;-1.690;2022-07-09T11:58:29;54.24;47.24;61.71;;
41518;Laerm;27249;48.094;-1.690;2022-07-09T12:00:54;54.15;45.17;61.43;;
41518;Laerm;27249;48.094;-1.690;2022-07-09T12:03:23;54.13;47.39;62.97;;
41518;Laerm;27249;48.094;-1.690;2022-07-09T12:05:49;54.64;46.05;66.64;;
41518;Laerm;27249;48.094;-1.690;2022-07-09T12:08:25;53.65;47.81;59.43;;
41518;Laerm;27249;48.094;-1.690;2022-07-09T12:10:50;57.46;49.10;70.02;;
41518;Laerm;27249;48.094;-1.690;2022-07-09T12:13:15;53.74;48.87;62.32;;
41518;Laerm;27249;48.094;-1.690;2022-07-09T12:15:41;54.48;46.33;65.32;;
41518;Laerm;27249;48.094;-1.690;2022-07-09T12:18:06;57.65;44.80;72.74;;
41518;Laerm;27249;48.094;-1.690;2022-07-09T12:20:31;55.00;47.04;64.76;;
41518;Laerm;27249;48.094;-1.690;2022-07-09T12:22:57;54.75;48.13;68.26;;
41518;Laerm;27249;48.094;-1.690;2022-07-09T12:25:22;55.67;46.82;65.57;;
41518;Laerm;27249;48.094;-1.690;2022-07-09T12:27:48;57.24;47.59;71.07;;
41518;Laerm;27249;48.094;-1.690;2022-07-09T12:30:16;56.87;49.70;67.81;;
41518;Laerm;27249;48.094;-1.690;2022-07-09T12:32:42;54.87;47.28;65.52;;
41518;Laerm;27249;48.094;-1.690;2022-07-09T12:35:08;55.17;48.25;65.49;;
41518;Laerm;27249;48.094;-1.690;2022-07-09T12:37:34;54.97;45.86;63.08;;
41518;Laerm;27249;48.094;-1.690;2022-07-09T12:40:00;54.61;46.71;70.36;;
41518;Laerm;27249;48.094;-1.690;2022-07-09T12:42:25;54.63;45.30;68.92;;
41518;Laerm;27249;48.094;-1.690;2022-07-09T12:44:50;55.56;47.65;63.85;;
41518;Laerm;27249;48.094;-1.690;2022-07-09T12:47:15;55.02;49.08;67.62;;
41518;Laerm;27249;48.094;-1.690;2022-07-09T12:49:41;54.15;45.07;66.24;;
41518;Laerm;27249;48.094;-1.690;2022-07-09T12:52:06;54.86;46.73;67.11;;
41518;Laerm;27249;48.094;-1.690;2022-07-09T12:54:31;54.00;49.35;63.39;;
41518;Laerm;27249;48.094;-1.690;2022-07-09T12:56:56;54.97;45.30;70.40;;
41518;Laerm;27249;48.094;-1.690;2022-07-09T12:59:22;54.16;45.83;71.97;;
41518;Laerm;27249;48.094;-1.690;2022-07-09T13:01:47;55.05;45.30;66.63;;
41518;Laerm;27249;48.094;-1.690;2022-07-09T13:04:13;54.18;44.76;64.07;;
41518;Laerm;27249;48.094;-1.690;2022-07-09T13:06:39;55.67;46.05;67.09;;
41518;Laerm;27249;48.094;-1.690;2022-07-09T13:09:05;55.55;48.21;72.50;;
41518;Laerm;27249;48.094;-1.690;2022-07-09T13:11:30;55.05;45.86;66.69;;
41518;Laerm;27249;48.094;-1.690;2022-07-09T13:13:56;57.12;49.08;73.73;;
41518;Laerm;27249;48.094;-1.690;2022-07-09T13:16:21;55.23;47.35;67.33;;
41518;Laerm;27249;48.094;-1.690;2022-07-09T13:18:47;57.85;47.86;70.46;;
41518;Laerm;27249;48.094;-1.690;2022-07-09T13:21:12;53.62;46.80;64.11;;
41518;Laerm;27249;48.094;-1.690;2022-07-09T13:23:37;54.43;46.89;66.07;;
41518;Laerm;27249;48.094;-1.690;2022-07-09T13:26:03;55.46;50.10;67.72;;
41518;Laerm;27249;48.094;-1.690;2022-07-09T13:28:28;55.42;45.36;67.51;;